createdAt,value
2022-12-05T00:01:43.031Z,3.00
2022-12-05T00:04:11.505Z,2.90
2022-12-05T00:06:38.876Z,3.00
2022-12-05T00:09:06.921Z,3.00
2022-12-05T00:11:37.061Z,2.90
2022-12-05T00:14:04.546Z,3.00
2022-12-05T00:16:32.680Z,3.00
2022-12-05T00:19:00.112Z,3.00
2022-12-05T00:21:27.845Z,3.00
2022-12-05T00:23:55.829Z,2.90
2022-12-05T00:26:22.780Z,3.00
2022-12-05T00:28:49.917Z,3.00
2022-12-05T00:31:19.054Z,3.10
2022-12-05T00:33:46.544Z,3.00
2022-12-05T00:36:18.166Z,3.00
2022-12-05T00:38:44.724Z,3.00
2022-12-05T00:41:16.864Z,3.00
2022-12-05T00:43:43.875Z,3.00
2022-12-05T00:46:15.459Z,3.00
2022-12-05T00:48:42.631Z,3.00
2022-12-05T00:51:13.555Z,3.00
2022-12-05T00:53:40.824Z,3.00
2022-12-05T00:56:08.915Z,3.00
2022-12-05T00:58:36.120Z,3.00
2022-12-05T01:01:13.489Z,3.00
2022-12-05T01:03:40.767Z,3.00
2022-12-05T01:06:08.022Z,3.00
2022-12-05T01:08:35.040Z,3.00
2022-12-05T01:11:02.441Z,3.00
2022-12-05T01:13:29.405Z,3.10
2022-12-05T01:15:56.597Z,3.10
2022-12-05T01:18:24.186Z,3.00
2022-12-05T01:20:51.505Z,3.00
2022-12-05T01:23:18.094Z,3.00
2022-12-05T01:25:46.626Z,3.00
2022-12-05T01:28:13.602Z,3.00
2022-12-05T01:30:41.508Z,3.00
2022-12-05T01:33:08.331Z,3.00
2022-12-05T01:35:36.152Z,3.00
2022-12-05T01:38:03.511Z,3.00
2022-12-05T01:40:30.435Z,3.00
2022-12-05T01:42:57.772Z,3.00
2022-12-05T01:45:32.835Z,3.00
2022-12-05T01:48:02.788Z,2.90
2022-12-05T01:50:29.370Z,2.90
2022-12-05T01:52:56.316Z,2.90
2022-12-05T01:55:22.829Z,2.90
2022-12-05T01:57:49.815Z,2.90
2022-12-05T02:00:17.642Z,2.90
2022-12-05T02:02:47.018Z,2.90
2022-12-05T02:05:16.987Z,2.90
2022-12-05T02:07:44.424Z,2.90
2022-12-05T02:10:10.960Z,2.90
2022-12-05T02:12:39.063Z,2.90
2022-12-05T02:15:06.335Z,2.90
2022-12-05T02:17:42.401Z,2.90
2022-12-05T02:20:12.369Z,2.80
2022-12-05T02:22:48.414Z,2.80
2022-12-05T02:25:15.337Z,2.80
2022-12-05T02:27:42.225Z,2.80
2022-12-05T02:30:08.758Z,2.80
2022-12-05T02:32:51.138Z,2.80
2022-12-05T02:35:27.196Z,3.30
2022-12-05T02:38:13.033Z,2.80
2022-12-05T02:40:39.917Z,2.80
2022-12-05T02:43:06.381Z,2.80
2022-12-05T02:45:35.138Z,2.80
2022-12-05T02:48:02.210Z,2.80
2022-12-05T02:50:31.040Z,2.80
2022-12-05T02:53:00.301Z,2.80
2022-12-05T02:55:28.777Z,2.70
2022-12-05T02:57:57.777Z,2.80
2022-12-05T03:00:24.747Z,2.80
2022-12-05T03:02:53.236Z,2.70
2022-12-05T03:05:24.397Z,2.70
2022-12-05T03:07:52.277Z,2.70
2022-12-05T03:10:21.257Z,2.70
2022-12-05T03:12:50.462Z,2.70
2022-12-05T03:15:24.425Z,2.60
2022-12-05T03:17:57.685Z,2.60
2022-12-05T03:20:28.746Z,2.60
2022-12-05T03:23:18.268Z,2.60
2022-12-05T03:25:51.341Z,2.70
2022-12-05T03:28:25.434Z,2.60
2022-12-05T03:30:53.594Z,2.70
2022-12-05T03:33:23.781Z,2.60
2022-12-05T03:36:02.170Z,2.60
2022-12-05T03:38:33.666Z,2.60
2022-12-05T03:41:12.387Z,2.60
2022-12-05T03:43:45.418Z,2.60
2022-12-05T03:46:15.788Z,2.60
2022-12-05T03:49:01.217Z,2.60
2022-12-05T03:51:31.333Z,2.60
2022-12-05T03:53:59.524Z,2.60
2022-12-05T03:56:30.138Z,2.60
2022-12-05T03:58:59.684Z,2.60
2022-12-05T04:01:28.479Z,2.60
2022-12-05T04:03:58.644Z,2.60
2022-12-05T04:06:36.645Z,2.60
2022-12-05T04:09:03.178Z,2.60
2022-12-05T04:11:32.560Z,2.60
2022-12-05T04:14:12.739Z,2.60
2022-12-05T04:17:06.014Z,2.60
2022-12-05T04:20:06.493Z,2.60
2022-12-05T04:22:33.569Z,2.60
2022-12-05T04:25:20.273Z,2.60
2022-12-05T04:28:05.725Z,2.60
2022-12-05T04:30:35.446Z,2.70
2022-12-05T04:33:11.584Z,2.60
2022-12-05T04:35:41.537Z,2.60
2022-12-05T04:38:10.775Z,2.60
2022-12-05T04:40:38.886Z,2.60
2022-12-05T04:43:06.538Z,2.60
2022-12-05T04:45:34.197Z,2.60
2022-12-05T04:48:04.431Z,2.60
2022-12-05T04:50:32.399Z,2.60
2022-12-05T04:53:00.218Z,2.60
2022-12-05T04:55:28.015Z,2.50
2022-12-05T04:58:07.921Z,2.50
2022-12-05T05:00:38.325Z,2.50
2022-12-05T05:03:11.822Z,2.50
2022-12-05T05:05:39.308Z,2.40
2022-12-05T05:08:16.019Z,2.40
2022-12-05T05:10:48.900Z,2.50
2022-12-05T05:13:15.363Z,2.50
2022-12-05T05:15:42.317Z,2.50
2022-12-05T05:18:09.714Z,2.50
2022-12-05T05:20:36.638Z,2.50
2022-12-05T05:23:03.553Z,2.50
2022-12-05T05:25:30.089Z,2.50
2022-12-05T05:27:57.427Z,2.40
2022-12-05T05:30:24.535Z,2.40
2022-12-05T05:32:51.667Z,2.40
2022-12-05T05:35:18.172Z,2.40
2022-12-05T05:37:44.690Z,2.40
2022-12-05T05:40:15.268Z,2.40
2022-12-05T05:42:45.678Z,2.40
2022-12-05T05:45:13.162Z,2.40
2022-12-05T05:47:40.045Z,2.40
2022-12-05T05:50:07.949Z,2.40
2022-12-05T05:52:35.132Z,2.50
2022-12-05T05:55:02.051Z,2.40
2022-12-05T05:57:29.186Z,2.40
2022-12-05T05:59:55.873Z,2.40
2022-12-05T06:02:23.093Z,2.30
2022-12-05T06:04:49.630Z,2.30
2022-12-05T06:07:16.400Z,2.40
2022-12-05T06:09:43.289Z,2.40
2022-12-05T06:12:09.763Z,2.40
2022-12-05T06:14:36.649Z,2.40
2022-12-05T06:17:03.562Z,2.40
2022-12-05T06:19:30.041Z,2.40
2022-12-05T06:21:56.909Z,2.40
2022-12-05T06:24:23.920Z,2.40
2022-12-05T06:26:50.377Z,2.40
2022-12-05T06:29:18.178Z,2.50
2022-12-05T06:31:47.532Z,2.50
2022-12-05T06:34:14.170Z,2.60
2022-12-05T06:36:40.645Z,2.50
2022-12-05T06:39:07.541Z,2.50
2022-12-05T06:41:34.039Z,2.50
2022-12-05T06:44:02.440Z,2.50
2022-12-05T06:46:30.207Z,2.40
2022-12-05T06:48:57.420Z,2.40
2022-12-05T06:51:24.703Z,2.40
2022-12-05T06:53:51.597Z,2.40
2022-12-05T06:56:19.573Z,2.50
2022-12-05T06:58:48.274Z,2.50
2022-12-05T07:01:35.239Z,2.50
2022-12-05T07:04:02.552Z,2.50
2022-12-05T07:06:29.052Z,2.50
2022-12-05T07:08:56.063Z,2.50
2022-12-05T07:11:23.089Z,2.50
2022-12-05T07:13:49.586Z,2.50
2022-12-05T07:16:16.112Z,2.50
2022-12-05T07:18:42.643Z,2.50
2022-12-05T07:21:12.808Z,2.50
2022-12-05T07:23:40.961Z,2.50
2022-12-05T07:26:08.192Z,2.50
2022-12-05T07:28:35.577Z,2.50
2022-12-05T07:31:03.386Z,2.40
2022-12-05T07:36:20.520Z,2.40
2022-12-05T07:38:47.117Z,2.40
2022-12-05T07:41:35.344Z,2.40
2022-12-05T07:44:01.834Z,2.40
2022-12-05T07:46:28.694Z,2.40
2022-12-05T07:48:55.429Z,2.40
2022-12-05T07:51:22.111Z,2.40
2022-12-05T07:53:48.674Z,2.40
2022-12-05T07:56:16.937Z,2.40
2022-12-05T07:58:44.810Z,2.40
2022-12-05T08:01:16.167Z,2.40
2022-12-05T08:03:43.733Z,2.40
2022-12-05T08:06:13.236Z,2.40
2022-12-05T08:08:40.029Z,2.40
2022-12-05T08:11:08.927Z,2.40
2022-12-05T08:13:36.049Z,2.40
2022-12-05T08:16:06.800Z,2.40
2022-12-05T08:18:33.365Z,2.40
2022-12-05T08:21:04.393Z,2.40
2022-12-05T08:23:31.589Z,2.40
2022-12-05T08:26:02.240Z,2.40
2022-12-05T08:28:29.736Z,2.40
2022-12-05T08:30:56.238Z,2.40
2022-12-05T08:33:22.764Z,2.40
2022-12-05T08:35:49.263Z,2.40
2022-12-05T08:38:15.835Z,2.40
2022-12-05T08:40:42.306Z,2.40
2022-12-05T08:43:09.194Z,2.40
2022-12-05T08:45:35.673Z,2.40
2022-12-05T08:48:02.166Z,2.30
2022-12-05T08:50:28.649Z,2.50
2022-12-05T08:52:55.208Z,2.50
2022-12-05T08:55:21.706Z,2.50
2022-12-05T08:57:48.620Z,2.50
2022-12-05T09:00:15.385Z,2.50
2022-12-05T09:02:41.912Z,2.50
2022-12-05T09:05:27.123Z,2.50
2022-12-05T09:07:55.178Z,2.60
2022-12-05T09:10:22.190Z,2.60
2022-12-05T09:12:50.393Z,2.50
2022-12-05T09:15:17.248Z,2.60
2022-12-05T09:17:45.944Z,2.60
2022-12-05T09:20:13.784Z,2.50
2022-12-05T09:22:40.709Z,2.50
2022-12-05T09:25:07.742Z,2.50
2022-12-05T09:27:34.680Z,2.60
2022-12-05T09:30:01.226Z,2.60
2022-12-05T09:32:27.748Z,2.60
2022-12-05T09:34:55.690Z,2.60
2022-12-05T09:37:38.665Z,2.60
2022-12-05T09:40:06.368Z,2.60
2022-12-05T09:42:32.869Z,2.60
2022-12-05T09:45:05.769Z,2.60
2022-12-05T09:47:44.782Z,2.60
2022-12-05T09:50:17.699Z,2.60
2022-12-05T09:53:04.467Z,2.60
2022-12-05T09:55:51.292Z,2.60
2022-12-05T09:58:24.786Z,2.60
2022-12-05T10:00:53.119Z,2.60
2022-12-05T10:03:19.600Z,2.60
2022-12-05T10:05:46.048Z,2.60
2022-12-05T10:08:17.366Z,2.60
2022-12-05T10:11:10.631Z,2.60
2022-12-05T10:13:45.160Z,2.50
2022-12-05T10:16:19.351Z,2.50
2022-12-05T10:18:48.149Z,2.50
2022-12-05T10:21:21.342Z,2.50
2022-12-05T10:24:05.767Z,2.50
2022-12-05T10:26:35.620Z,2.50
2022-12-05T10:29:02.087Z,2.50
2022-12-05T10:31:35.092Z,2.60
2022-12-05T10:34:24.879Z,2.60
2022-12-05T10:36:55.094Z,2.60
2022-12-05T10:39:21.750Z,2.60
2022-12-05T10:41:48.549Z,2.50
2022-12-05T10:44:15.838Z,2.60
2022-12-05T10:46:42.840Z,2.60
2022-12-05T10:49:13.416Z,2.60
2022-12-05T10:51:40.702Z,2.60
2022-12-05T10:54:22.138Z,2.70
2022-12-05T10:56:50.571Z,2.60
2022-12-05T10:59:26.147Z,2.60
2022-12-05T11:01:57.444Z,2.60
2022-12-05T11:04:25.529Z,2.70
2022-12-05T11:07:05.141Z,2.50
2022-12-05T11:09:32.982Z,2.50
2022-12-05T11:11:59.475Z,2.60
2022-12-05T11:14:26.700Z,2.60
2022-12-05T11:16:54.794Z,2.60
2022-12-05T11:19:21.373Z,2.60
2022-12-05T11:21:48.863Z,4.00
2022-12-05T11:24:25.079Z,2.50
2022-12-05T11:26:51.762Z,2.50
2022-12-05T11:29:28.702Z,3.30
2022-12-05T11:31:55.631Z,2.40
2022-12-05T11:34:23.968Z,2.40
2022-12-05T11:36:54.266Z,2.50
2022-12-05T11:39:21.236Z,2.50
2022-12-05T11:42:02.874Z,2.50
2022-12-05T11:44:52.212Z,2.50
2022-12-05T11:47:37.919Z,2.50
2022-12-05T11:50:15.103Z,2.50
2022-12-05T11:52:41.602Z,2.60
2022-12-05T11:55:25.047Z,2.70
2022-12-05T11:57:54.568Z,2.70
2022-12-05T12:00:23.282Z,2.60
2022-12-05T12:02:49.840Z,2.60
2022-12-05T12:05:36.619Z,2.60
2022-12-05T12:08:09.820Z,2.60
2022-12-05T12:10:45.611Z,2.50
2022-12-05T12:13:15.620Z,2.50
2022-12-05T12:16:05.122Z,2.50
2022-12-05T12:18:47.514Z,2.50
2022-12-05T12:21:21.011Z,2.60
2022-12-05T12:23:50.856Z,2.60
2022-12-05T12:26:33.809Z,2.60
2022-12-05T12:29:00.260Z,2.60
2022-12-05T12:31:27.244Z,2.60
2022-12-05T12:33:53.794Z,2.60
2022-12-05T12:36:28.957Z,2.60
2022-12-05T12:39:14.029Z,2.50
2022-12-05T12:41:59.752Z,2.50
2022-12-05T12:44:26.213Z,2.50
2022-12-05T12:46:54.380Z,2.40
2022-12-05T12:49:21.293Z,2.30
2022-12-05T12:51:59.306Z,2.40
2022-12-05T12:55:02.776Z,2.30
2022-12-05T12:57:33.721Z,2.20
2022-12-05T13:00:06.377Z,2.20
2022-12-05T13:02:39.453Z,2.20
2022-12-05T13:05:29.371Z,2.20
2022-12-05T13:07:58.908Z,2.20
2022-12-05T13:10:28.786Z,2.20
2022-12-05T13:12:57.118Z,2.20
2022-12-05T13:15:27.771Z,2.20
2022-12-05T13:17:55.040Z,2.10
2022-12-05T13:20:22.484Z,2.10
2022-12-05T13:22:50.337Z,2.10
2022-12-05T13:25:18.257Z,2.00
2022-12-05T13:27:54.398Z,3.00
2022-12-05T13:30:21.420Z,2.00
2022-12-05T13:32:55.275Z,2.00
2022-12-05T13:35:57.389Z,2.00
2022-12-05T13:38:47.513Z,1.90
2022-12-05T13:41:32.985Z,1.90
2022-12-05T13:44:06.459Z,1.90
2022-12-05T13:46:38.620Z,1.90
2022-12-05T13:49:11.672Z,1.90
2022-12-05T13:51:43.819Z,1.90
2022-12-05T13:54:10.433Z,1.90
2022-12-05T13:56:49.669Z,1.90
2022-12-05T13:59:35.021Z,1.90
2022-12-05T14:02:01.606Z,2.00
2022-12-05T14:04:50.599Z,2.00
2022-12-05T14:07:37.221Z,1.90
2022-12-05T14:10:03.907Z,1.90
2022-12-05T14:12:31.137Z,1.90
2022-12-05T14:14:58.389Z,1.90
2022-12-05T14:17:26.733Z,1.90
2022-12-05T14:20:12.076Z,2.00
2022-12-05T14:22:44.452Z,1.90
2022-12-05T14:25:23.235Z,1.90
2022-12-05T14:27:56.262Z,1.80
2022-12-05T14:30:25.413Z,1.80
2022-12-05T14:32:53.834Z,1.80
2022-12-05T14:35:29.879Z,1.80
2022-12-05T14:37:58.518Z,1.80
2022-12-05T14:40:31.355Z,1.80
2022-12-05T14:43:00.503Z,1.70
2022-12-05T14:45:29.129Z,1.70
2022-12-05T14:47:57.357Z,1.70
2022-12-05T14:50:40.779Z,1.70
2022-12-05T14:53:18.283Z,1.60
2022-12-05T14:55:45.573Z,1.60
2022-12-05T14:58:19.729Z,1.60
2022-12-05T15:00:54.303Z,1.60
2022-12-05T15:03:25.371Z,1.60
2022-12-05T15:05:52.618Z,1.60
2022-12-05T15:08:20.229Z,1.60
2022-12-05T15:10:47.879Z,1.60
2022-12-05T15:13:18.088Z,2.80
2022-12-05T15:15:52.596Z,1.60
2022-12-05T15:18:29.824Z,0.20
2022-12-05T15:20:56.737Z,1.60
2022-12-05T15:23:44.688Z,1.80
2022-12-05T15:26:49.722Z,1.60
2022-12-05T15:29:13.345Z,1.50
2022-12-05T15:31:44.927Z,1.50
2022-12-05T15:34:15.688Z,1.60
2022-12-05T15:36:45.861Z,1.60
2022-12-05T15:39:26.153Z,1.60
2022-12-05T15:41:53.475Z,1.60
2022-12-05T15:44:26.692Z,0.60
2022-12-05T15:46:55.337Z,1.60
2022-12-05T15:49:26.811Z,1.60
2022-12-05T15:51:55.983Z,1.60
2022-12-05T15:54:29.173Z,1.60
2022-12-05T15:56:58.819Z,1.60
2022-12-05T15:59:28.813Z,1.60
2022-12-05T16:01:58.793Z,1.70
2022-12-05T16:04:31.969Z,1.60
2022-12-05T16:07:00.729Z,1.60
2022-12-05T16:09:29.361Z,1.60
2022-12-05T16:11:55.865Z,1.60
2022-12-05T16:14:57.879Z,1.60
2022-12-05T16:17:14.682Z,1.60
2022-12-05T16:19:41.680Z,1.60
2022-12-05T16:22:09.549Z,1.60
2022-12-05T16:24:45.257Z,1.60
2022-12-05T16:27:23.285Z,1.60
2022-12-05T16:30:12.981Z,1.50
2022-12-05T16:32:40.445Z,1.50
2022-12-05T16:35:27.313Z,1.60
2022-12-05T16:38:23.269Z,1.60
2022-12-05T16:40:50.190Z,1.60
2022-12-05T16:43:22.513Z,1.60
2022-12-05T16:45:50.408Z,1.60
2022-12-05T16:48:20.018Z,1.70
2022-12-05T16:50:47.157Z,1.60
2022-12-05T16:53:16.857Z,1.60
2022-12-05T16:55:44.143Z,1.70
2022-12-05T16:58:12.486Z,1.70
2022-12-05T17:00:39.420Z,1.70
2022-12-05T17:03:32.776Z,1.70
2022-12-05T17:05:57.234Z,1.70
2022-12-05T17:08:24.285Z,1.70
2022-12-05T17:10:52.110Z,1.70
2022-12-05T17:13:19.523Z,1.70
2022-12-05T17:15:46.408Z,1.70
2022-12-05T17:18:17.854Z,1.70
2022-12-05T17:20:45.678Z,1.60
2022-12-05T17:23:13.748Z,1.70
2022-12-05T17:25:45.050Z,1.70
2022-12-05T17:28:11.555Z,1.70
2022-12-05T17:30:38.687Z,1.60
2022-12-05T17:33:05.463Z,1.60
2022-12-05T17:35:32.575Z,1.60
2022-12-05T17:37:59.105Z,1.50
2022-12-05T17:40:26.070Z,1.50
2022-12-05T17:42:52.544Z,1.50
2022-12-05T17:45:19.103Z,1.40
2022-12-05T17:47:46.030Z,1.40
2022-12-05T17:50:16.901Z,1.40
2022-12-05T17:52:43.968Z,1.40
2022-12-05T17:55:21.142Z,1.50
2022-12-05T17:57:48.396Z,1.50
2022-12-05T18:00:16.221Z,1.50
2022-12-05T18:02:44.394Z,1.60
2022-12-05T18:05:11.523Z,1.60
2022-12-05T18:07:38.865Z,1.60
2022-12-05T18:10:12.387Z,1.60
2022-12-05T18:12:39.337Z,1.60
2022-12-05T18:15:06.497Z,1.60
2022-12-05T18:17:33.498Z,1.60
2022-12-05T18:20:00.000Z,1.60
2022-12-05T18:22:27.800Z,1.70
2022-12-05T18:24:54.337Z,1.70
2022-12-05T18:27:21.797Z,1.70
2022-12-05T18:29:48.764Z,1.70
2022-12-05T18:32:15.912Z,1.70
2022-12-05T18:34:42.881Z,1.70
2022-12-05T18:37:10.429Z,1.70
2022-12-05T18:39:40.414Z,1.70
2022-12-05T18:42:11.757Z,1.70
2022-12-05T18:44:41.836Z,1.60
2022-12-05T18:47:08.317Z,1.70
2022-12-05T18:49:35.333Z,1.60
2022-12-05T18:52:02.282Z,1.60
2022-12-05T18:54:28.763Z,1.50
2022-12-05T18:56:55.802Z,1.50
2022-12-05T18:59:22.380Z,1.50
2022-12-05T19:01:50.913Z,1.50
2022-12-05T19:04:19.430Z,1.50
2022-12-05T19:06:47.396Z,1.60
2022-12-05T19:09:15.328Z,1.50
2022-12-05T19:11:47.204Z,1.50
2022-12-05T19:14:15.293Z,1.50
2022-12-05T19:16:42.249Z,1.50
2022-12-05T19:19:11.153Z,1.50
2022-12-05T19:21:37.653Z,1.50
2022-12-05T19:24:05.084Z,1.50
2022-12-05T19:26:32.308Z,1.50
2022-12-05T19:28:59.271Z,1.50
2022-12-05T19:31:28.214Z,1.60
2022-12-05T19:33:55.635Z,1.50
2022-12-05T19:36:24.097Z,1.50
2022-12-05T19:38:51.958Z,1.50
2022-12-05T19:41:22.085Z,1.50
2022-12-05T19:43:48.886Z,1.50
2022-12-05T19:46:16.971Z,1.50
2022-12-05T19:48:43.580Z,1.50
2022-12-05T19:51:10.707Z,1.50
2022-12-05T19:56:27.119Z,1.50
2022-12-05T19:58:55.284Z,1.60
2022-12-05T20:01:35.765Z,1.50
2022-12-05T20:04:04.818Z,1.50
2022-12-05T20:06:33.121Z,1.50
2022-12-05T20:08:59.974Z,1.50
2022-12-05T20:11:28.964Z,1.50
2022-12-05T20:13:56.036Z,1.50
2022-12-05T20:16:23.510Z,1.50
2022-12-05T20:18:50.746Z,1.50
2022-12-05T20:21:18.762Z,1.50
2022-12-05T20:23:45.963Z,1.50
2022-12-05T20:26:13.672Z,1.50
2022-12-05T20:28:40.414Z,1.50
2022-12-05T20:31:10.336Z,1.50
2022-12-05T20:33:37.748Z,1.50
2022-12-05T20:36:05.530Z,1.60
2022-12-05T20:38:32.208Z,1.50
2022-12-05T20:40:59.554Z,1.50
2022-12-05T20:43:26.944Z,1.50
2022-12-05T20:45:54.018Z,1.50
2022-12-05T20:48:21.828Z,1.60
2022-12-05T20:50:48.513Z,1.60
2022-12-05T20:53:15.413Z,1.60
2022-12-05T20:55:41.902Z,1.60
2022-12-05T20:58:08.794Z,1.60
2022-12-05T21:00:35.756Z,1.60
2022-12-05T21:03:02.712Z,1.60
2022-12-05T21:05:29.211Z,1.60
2022-12-05T21:07:55.756Z,1.50
2022-12-05T21:10:22.697Z,1.50
2022-12-05T21:12:49.240Z,1.60
2022-12-05T21:15:16.768Z,1.50
2022-12-05T21:17:43.273Z,1.50
2022-12-05T21:20:10.400Z,1.60
2022-12-05T21:22:36.893Z,1.50
2022-12-05T21:25:03.905Z,1.60
2022-12-05T21:27:31.029Z,1.60
2022-12-05T21:29:57.909Z,1.60
2022-12-05T21:32:25.003Z,1.60
2022-12-05T21:34:51.877Z,1.60
2022-12-05T21:37:18.348Z,1.60
2022-12-05T21:39:45.261Z,1.60
2022-12-05T21:42:11.718Z,1.70
2022-12-05T21:44:38.213Z,1.60
2022-12-05T21:47:05.117Z,1.60
2022-12-05T21:49:32.026Z,1.60
2022-12-05T21:51:58.928Z,1.60
2022-12-05T21:54:25.813Z,1.60
2022-12-05T21:56:52.700Z,1.60
2022-12-05T22:02:07.165Z,1.60
2022-12-05T22:04:33.701Z,1.70
2022-12-05T22:07:00.180Z,1.60
2022-12-05T22:09:27.193Z,1.60
2022-12-05T22:11:54.180Z,1.50
2022-12-05T22:14:20.668Z,1.50
2022-12-05T22:16:47.179Z,1.50
2022-12-05T22:19:14.346Z,1.50
2022-12-05T22:21:41.251Z,1.50
2022-12-05T22:24:08.238Z,1.60
2022-12-05T22:26:35.226Z,2.80
2022-12-05T22:29:02.121Z,1.50
2022-12-05T22:31:28.720Z,1.50
2022-12-05T22:33:55.766Z,1.50
2022-12-05T22:36:24.074Z,1.60
2022-12-05T22:38:51.565Z,1.50
2022-12-05T22:41:20.096Z,1.50
2022-12-05T22:43:47.760Z,2.10
2022-12-05T22:46:17.277Z,1.50
2022-12-05T22:48:44.153Z,1.50
2022-12-05T22:51:11.267Z,1.50
2022-12-05T22:53:38.492Z,1.60
2022-12-05T22:56:15.705Z,1.60
2022-12-05T22:58:42.458Z,1.60
2022-12-05T23:01:15.322Z,1.60
2022-12-05T23:03:43.025Z,1.60
2022-12-05T23:06:12.017Z,1.60
2022-12-05T23:08:39.110Z,1.50
2022-12-05T23:11:06.548Z,1.60
2022-12-05T23:13:33.856Z,1.60
2022-12-05T23:16:07.441Z,1.60
2022-12-05T23:18:46.422Z,1.50
2022-12-05T23:21:24.227Z,1.50
2022-12-05T23:23:52.002Z,1.50
2022-12-05T23:26:19.375Z,1.50
2022-12-05T23:28:46.360Z,1.50
2022-12-05T23:31:13.253Z,1.50
2022-12-05T23:33:40.528Z,1.50
2022-12-05T23:36:07.272Z,1.90
2022-12-05T23:38:37.731Z,1.50
2022-12-05T23:41:04.853Z,1.50
2022-12-05T23:43:31.971Z,1.40
2022-12-05T23:45:59.251Z,1.50
2022-12-05T23:48:26.325Z,1.50
2022-12-05T23:51:00.202Z,1.50
2022-12-05T23:53:27.146Z,1.50
2022-12-05T23:55:54.192Z,1.60
2022-12-05T23:58:20.718Z,1.60
